logo
Search for airport 
image banner adimage banner adimage banner ad
image banner ad

FAJV - Jansenville

Located in Jansenville, South Africa

ICAO - FAJV, IATA -

Data provided by Airmate  

General information

Coordinates: S32°57'8" E24°38'50"
Elevation is 1374 feet MSL.
 
View others Airports in Eastern Cape

Operational data

Special qualification required
Current time UTC:
Current local time:
Weather at : - ( 0 km )
METAR: KIXA 181005Z AUTO 25006KT 10SM CLR 16/15 A2995 RMK AO2
View NOTAMs / SUP AIP / TFR affecting this airport [VIEW]
Communications frequencies: [VIEW]

Runways:

RWY identifierQFULength (ft)Width (ft)SurfaceLDA (ft)
10105°292066SAND
28285°292066SAND
14121°216566SAND
32301°216566SAND

Airport contact information

Address: Jansenville South Africa

Satellite view of FAJV